createdAt,value
2023-03-21T00:01:13.153Z,66.63
2023-03-21T00:03:43.660Z,66.20
2023-03-21T00:06:13.540Z,66.69
2023-03-21T00:08:42.143Z,66.18
2023-03-21T00:11:12.248Z,65.71
2023-03-21T00:13:42.762Z,66.77
2023-03-21T00:16:17.987Z,66.31
2023-03-21T00:18:52.871Z,66.42
2023-03-21T00:21:43.874Z,67.16
2023-03-21T00:24:11.238Z,67.08
2023-03-21T00:26:39.897Z,67.19
2023-03-21T00:29:08.173Z,66.88
2023-03-21T00:31:36.376Z,67.18
2023-03-21T00:34:05.124Z,68.20
2023-03-21T00:36:33.353Z,68.09
2023-03-21T00:39:01.607Z,68.91
2023-03-21T00:41:45.319Z,68.62
2023-03-21T00:44:16.196Z,67.29
2023-03-21T00:46:57.353Z,68.54
2023-03-21T00:49:33.820Z,67.69
2023-03-21T00:52:18.346Z,68.30
2023-03-21T00:54:52.979Z,68.63
2023-03-21T00:57:29.268Z,68.80
2023-03-21T01:00:07.719Z,68.78
2023-03-21T01:02:38.357Z,68.17
2023-03-21T01:05:06.907Z,68.32
2023-03-21T01:07:35.558Z,69.01
2023-03-21T01:10:04.557Z,68.50
2023-03-21T01:12:32.576Z,69.09
2023-03-21T01:15:01.549Z,70.07
2023-03-21T01:17:29.659Z,70.47
2023-03-21T01:19:57.868Z,70.62
2023-03-21T01:22:26.636Z,71.20
2023-03-21T01:25:00.576Z,71.34
2023-03-21T01:27:34.317Z,70.65
2023-03-21T01:30:06.308Z,69.87
2023-03-21T01:32:37.245Z,70.89
2023-03-21T01:35:07.008Z,70.71
2023-03-21T01:37:35.633Z,69.73
2023-03-21T01:40:05.338Z,70.73
2023-03-21T01:42:33.923Z,69.38
2023-03-21T01:45:06.314Z,70.60
2023-03-21T01:47:35.111Z,70.54
2023-03-21T01:50:04.405Z,71.50
2023-03-21T01:52:38.912Z,71.72
2023-03-21T01:55:12.190Z,72.11
2023-03-21T01:57:55.209Z,71.37
2023-03-21T02:00:29.788Z,73.29
2023-03-21T02:03:11.680Z,72.93
2023-03-21T02:05:51.690Z,73.30
2023-03-21T02:08:25.887Z,73.17
2023-03-21T02:11:05.334Z,72.37
2023-03-21T02:13:38.257Z,72.66
2023-03-21T02:16:18.643Z,73.10
2023-03-21T02:19:02.797Z,73.95
2023-03-21T02:22:03.407Z,73.67
2023-03-21T02:24:48.926Z,73.67
2023-03-21T02:27:24.566Z,74.30
2023-03-21T02:30:31.822Z,73.24
2023-03-21T02:33:11.556Z,73.82
2023-03-21T02:36:13.607Z,72.96
2023-03-21T02:38:48.668Z,72.41
2023-03-21T02:41:40.749Z,72.19
2023-03-21T02:44:16.729Z,71.37
2023-03-21T02:47:06.492Z,71.74
2023-03-21T02:49:46.583Z,72.74
2023-03-21T02:52:32.077Z,73.80
2023-03-21T02:55:14.275Z,73.67
2023-03-21T02:57:46.546Z,73.72
2023-03-21T03:00:19.892Z,73.41
2023-03-21T03:02:54.618Z,73.52
2023-03-21T03:05:30.020Z,72.00
2023-03-21T03:08:17.278Z,73.61
2023-03-21T03:10:54.798Z,73.29
2023-03-21T03:13:32.653Z,72.40
2023-03-21T03:16:15.790Z,71.72
2023-03-21T03:18:57.560Z,71.64
2023-03-21T03:21:48.602Z,71.47
2023-03-21T03:24:30.301Z,71.25
2023-03-21T03:27:08.190Z,71.29
2023-03-21T03:29:39.797Z,71.56
2023-03-21T03:32:13.858Z,71.47
2023-03-21T03:34:46.181Z,70.71
2023-03-21T03:37:17.216Z,70.43
2023-03-21T03:39:50.608Z,71.42
2023-03-21T03:42:28.357Z,70.56
2023-03-21T03:44:58.077Z,70.83
2023-03-21T03:47:34.997Z,69.94
2023-03-21T03:50:28.686Z,71.79
2023-03-21T03:53:19.057Z,71.82
2023-03-21T03:55:48.646Z,71.96
2023-03-21T03:58:24.772Z,70.89
2023-03-21T04:00:57.739Z,71.47
2023-03-21T04:03:26.577Z,72.43
2023-03-21T04:05:54.829Z,71.97
2023-03-21T04:08:23.658Z,72.44
2023-03-21T04:10:52.481Z,71.74
2023-03-21T04:13:20.873Z,71.75
2023-03-21T04:15:49.569Z,70.97
2023-03-21T04:18:19.070Z,71.87
2023-03-21T04:20:48.906Z,71.80
2023-03-21T04:23:21.992Z,72.23
2023-03-21T04:25:56.811Z,71.36
2023-03-21T04:28:27.209Z,70.42
2023-03-21T04:31:03.609Z,71.66
2023-03-21T04:33:38.952Z,72.90
2023-03-21T04:36:09.703Z,72.09
2023-03-21T04:38:39.476Z,71.67
2023-03-21T04:41:07.747Z,71.20
2023-03-21T04:43:36.521Z,71.02
2023-03-21T04:46:05.186Z,71.92
2023-03-21T04:48:33.302Z,71.75
2023-03-21T04:51:01.691Z,72.40
2023-03-21T04:53:30.296Z,71.55
2023-03-21T04:55:58.550Z,72.33
2023-03-21T04:58:26.975Z,70.79
2023-03-21T05:00:55.578Z,72.39
2023-03-21T05:03:24.656Z,71.18
2023-03-21T05:05:52.817Z,71.86
2023-03-21T05:08:21.586Z,70.60
2023-03-21T05:10:49.839Z,71.90
2023-03-21T05:13:18.157Z,72.08
2023-03-21T05:15:47.047Z,72.84
2023-03-21T05:18:15.567Z,73.10
2023-03-21T05:20:45.377Z,72.67
2023-03-21T05:23:14.395Z,72.36
2023-03-21T05:25:42.665Z,71.09
2023-03-21T05:28:11.324Z,68.70
2023-03-21T05:30:39.985Z,64.57
2023-03-21T05:33:08.393Z,62.10
2023-03-21T05:35:36.870Z,63.08
2023-03-21T05:38:06.767Z,65.43
2023-03-21T05:40:35.767Z,60.47
2023-03-21T05:43:03.996Z,53.73
2023-03-21T05:45:32.554Z,48.88
2023-03-21T05:48:01.314Z,47.06
2023-03-21T05:50:30.710Z,46.17
2023-03-21T05:53:01.651Z,47.73
2023-03-21T05:55:29.886Z,49.37
2023-03-21T05:57:58.541Z,55.58
2023-03-21T06:00:29.632Z,58.66
2023-03-21T06:03:01.154Z,58.90
2023-03-21T06:05:30.596Z,59.75
2023-03-21T06:07:58.969Z,61.38
2023-03-21T06:10:27.858Z,61.77
2023-03-21T06:12:56.111Z,63.06
2023-03-21T06:15:25.560Z,60.89
2023-03-21T06:17:54.325Z,59.43
2023-03-21T06:20:22.483Z,61.87
2023-03-21T06:22:51.361Z,60.96
2023-03-21T06:25:20.009Z,63.02
2023-03-21T06:27:48.382Z,63.42
2023-03-21T06:30:18.219Z,62.20
2023-03-21T06:32:47.012Z,61.24
2023-03-21T06:35:17.556Z,60.26
2023-03-21T06:37:46.699Z,59.96
2023-03-21T06:40:17.519Z,60.74
2023-03-21T06:42:46.616Z,62.43
2023-03-21T06:45:15.228Z,59.14
2023-03-21T06:47:43.744Z,59.18
2023-03-21T06:50:12.712Z,57.96
2023-03-21T06:52:41.491Z,57.72
2023-03-21T06:55:10.143Z,55.63
2023-03-21T06:57:39.633Z,55.03
2023-03-21T07:00:09.700Z,56.12
2023-03-21T07:02:42.664Z,55.35
2023-03-21T07:05:11.822Z,55.40
2023-03-21T07:07:40.882Z,54.31
2023-03-21T07:10:10.066Z,54.58
2023-03-21T07:12:42.052Z,53.56
2023-03-21T07:15:10.859Z,53.24
2023-03-21T07:17:40.620Z,54.22
2023-03-21T07:20:09.471Z,54.54
2023-03-21T07:22:37.630Z,53.08
2023-03-21T07:25:08.242Z,52.07
2023-03-21T07:27:40.797Z,52.16
2023-03-21T07:30:11.288Z,51.75
2023-03-21T07:32:40.176Z,50.94
2023-03-21T07:35:13.500Z,49.28
2023-03-21T07:37:42.623Z,49.23
2023-03-21T07:40:14.023Z,47.14
2023-03-21T07:42:42.989Z,47.70
2023-03-21T07:45:16.626Z,48.06
2023-03-21T07:47:48.494Z,47.95
2023-03-21T07:50:17.106Z,47.42
2023-03-21T07:52:45.625Z,48.02
2023-03-21T07:55:14.177Z,48.94
2023-03-21T07:57:42.423Z,47.02
2023-03-21T08:00:11.246Z,46.20
2023-03-21T08:02:41.295Z,46.08
2023-03-21T08:05:11.793Z,45.90
2023-03-21T08:07:40.011Z,46.41
2023-03-21T08:10:10.637Z,45.66
2023-03-21T08:12:39.375Z,45.91
2023-03-21T08:15:09.655Z,44.00
2023-03-21T08:17:38.350Z,44.77
2023-03-21T08:20:09.339Z,44.15
2023-03-21T08:22:38.768Z,43.48
2023-03-21T08:25:08.592Z,42.49
2023-03-21T08:27:36.765Z,42.48
2023-03-21T08:30:05.304Z,42.64
2023-03-21T08:32:34.118Z,42.10
2023-03-21T08:35:03.116Z,43.02
2023-03-21T08:37:31.376Z,41.44
2023-03-21T08:39:59.879Z,42.87
2023-03-21T08:42:28.086Z,41.97
2023-03-21T08:44:56.321Z,42.56
2023-03-21T08:47:26.639Z,43.83
2023-03-21T08:49:55.219Z,42.90
2023-03-21T08:52:24.644Z,41.82
2023-03-21T08:54:53.135Z,42.71
2023-03-21T08:57:21.680Z,42.50
2023-03-21T08:59:50.541Z,44.02
2023-03-21T09:02:18.840Z,44.38
2023-03-21T09:04:47.844Z,45.23
2023-03-21T09:07:18.351Z,43.54
2023-03-21T09:09:53.357Z,42.57
2023-03-21T09:12:27.079Z,42.66
2023-03-21T09:14:56.687Z,41.94
2023-03-21T09:17:26.701Z,41.62
2023-03-21T09:19:57.562Z,41.11
2023-03-21T09:22:26.408Z,39.56
2023-03-21T09:24:54.902Z,38.93
2023-03-21T09:27:28.533Z,38.65
2023-03-21T09:29:57.821Z,36.55
2023-03-21T09:32:26.080Z,38.52
2023-03-21T09:34:56.439Z,37.81
2023-03-21T09:37:24.977Z,38.32
2023-03-21T09:39:53.413Z,37.12
2023-03-21T09:42:45.943Z,37.65
2023-03-21T09:45:28.015Z,37.78
2023-03-21T09:47:57.343Z,36.41
2023-03-21T09:50:37.765Z,35.67
2023-03-21T09:53:26.837Z,36.34
2023-03-21T09:55:55.809Z,37.12
2023-03-21T09:58:28.540Z,36.33
2023-03-21T10:01:05.621Z,33.87
2023-03-21T10:03:37.258Z,32.36
2023-03-21T10:06:11.787Z,33.93
2023-03-21T10:08:42.376Z,32.63
2023-03-21T10:11:23.808Z,32.66
2023-03-21T10:13:59.248Z,30.41
2023-03-21T10:16:32.885Z,29.74
2023-03-21T10:19:04.309Z,29.57
2023-03-21T10:21:58.495Z,28.12
2023-03-21T10:24:25.785Z,27.25
2023-03-21T10:26:54.978Z,27.30
2023-03-21T10:29:30.006Z,26.93
2023-03-21T10:31:58.180Z,26.45
2023-03-21T10:34:43.496Z,26.24
2023-03-21T10:37:13.334Z,26.20
2023-03-21T10:39:45.858Z,25.30
2023-03-21T10:42:20.573Z,25.80
2023-03-21T10:44:53.539Z,26.45
2023-03-21T10:47:31.265Z,26.65
2023-03-21T10:50:10.424Z,24.08
2023-03-21T10:52:51.442Z,24.04
2023-03-21T10:55:26.879Z,23.26
2023-03-21T10:58:11.124Z,23.12
2023-03-21T11:00:41.995Z,23.09
2023-03-21T11:03:25.910Z,23.70
2023-03-21T11:05:57.205Z,23.50
2023-03-21T11:08:25.851Z,24.07
2023-03-21T11:11:09.480Z,23.79
2023-03-21T11:13:41.216Z,23.12
2023-03-21T11:16:23.753Z,22.55
2023-03-21T11:18:56.909Z,21.79
2023-03-21T11:21:29.660Z,23.77
2023-03-21T11:23:59.906Z,23.88
2023-03-21T11:26:32.580Z,23.49
2023-03-21T11:29:01.518Z,23.30
2023-03-21T11:31:40.116Z,23.46
2023-03-21T11:34:12.831Z,23.94
2023-03-21T11:36:41.808Z,24.30
2023-03-21T11:39:15.128Z,22.45
2023-03-21T11:41:44.061Z,22.31
2023-03-21T11:44:31.180Z,21.45
2023-03-21T11:47:00.127Z,23.13
2023-03-21T11:49:28.908Z,23.54
2023-03-21T11:52:38.956Z,21.91
2023-03-21T11:55:23.092Z,22.85
2023-03-21T11:58:26.059Z,23.50
2023-03-21T12:01:25.189Z,26.46
2023-03-21T12:04:03.003Z,26.72
2023-03-21T12:06:56.324Z,27.81
2023-03-21T12:09:34.662Z,28.45
2023-03-21T12:12:38.972Z,29.74
2023-03-21T12:15:08.521Z,31.18
2023-03-21T12:17:36.635Z,33.56
2023-03-21T12:20:18.961Z,35.04
2023-03-21T12:23:17.146Z,35.92
2023-03-21T12:25:56.919Z,37.35
2023-03-21T12:28:46.649Z,37.46
2023-03-21T12:31:53.803Z,37.69
2023-03-21T12:34:22.217Z,39.09
2023-03-21T12:37:13.098Z,37.68
2023-03-21T12:39:46.907Z,37.62
2023-03-21T12:42:54.996Z,37.95
2023-03-21T12:45:37.341Z,37.95
2023-03-21T12:48:26.489Z,39.07
2023-03-21T12:50:56.516Z,38.91
2023-03-21T12:53:38.965Z,38.25
2023-03-21T12:56:20.017Z,38.58
2023-03-21T12:59:12.438Z,38.03
2023-03-21T13:01:44.936Z,38.56
2023-03-21T13:04:36.382Z,39.28
2023-03-21T13:07:10.974Z,39.59
2023-03-21T13:09:41.521Z,38.27
2023-03-21T13:12:29.030Z,36.63
2023-03-21T13:15:23.628Z,36.69
2023-03-21T13:18:00.700Z,37.94
2023-03-21T13:20:41.243Z,38.18
2023-03-21T13:23:09.800Z,37.94
2023-03-21T13:25:49.015Z,37.71
2023-03-21T13:28:23.259Z,37.29
2023-03-21T13:30:51.984Z,37.29
2023-03-21T13:33:29.537Z,36.41
2023-03-21T13:36:07.493Z,36.48
2023-03-21T13:38:40.416Z,37.42
2023-03-21T13:41:17.909Z,37.61
2023-03-21T13:43:57.954Z,37.90
2023-03-21T13:46:26.259Z,37.54
2023-03-21T13:49:10.085Z,37.00
2023-03-21T13:51:47.741Z,37.08
2023-03-21T13:54:17.936Z,35.58
2023-03-21T13:56:50.096Z,35.42
2023-03-21T13:59:40.060Z,32.95
2023-03-21T14:02:30.434Z,33.00
2023-03-21T14:05:25.053Z,33.09
2023-03-21T14:08:15.375Z,33.84
2023-03-21T14:10:52.082Z,33.30
2023-03-21T14:13:23.255Z,34.21
2023-03-21T14:15:56.844Z,34.04
2023-03-21T14:18:47.859Z,33.88
2023-03-21T14:21:28.032Z,33.81
2023-03-21T14:24:04.365Z,32.92
2023-03-21T14:26:38.610Z,33.00
2023-03-21T14:29:22.974Z,33.31
2023-03-21T14:31:56.550Z,33.68
2023-03-21T14:34:26.392Z,34.26
2023-03-21T14:36:58.541Z,34.73
2023-03-21T14:39:32.154Z,34.09
2023-03-21T14:42:11.657Z,35.06
2023-03-21T14:44:58.094Z,34.98
2023-03-21T14:47:28.709Z,35.69
2023-03-21T14:49:57.876Z,36.18
2023-03-21T14:52:31.468Z,35.79
2023-03-21T14:55:01.551Z,36.47
2023-03-21T14:57:32.149Z,37.07
2023-03-21T15:00:06.138Z,37.88
2023-03-21T15:02:38.115Z,37.80
2023-03-21T15:05:37.772Z,37.46
2023-03-21T15:08:18.679Z,36.92
2023-03-21T15:11:07.505Z,36.96
2023-03-21T15:13:53.231Z,37.20
2023-03-21T15:16:21.821Z,36.07
2023-03-21T15:18:50.682Z,36.67
2023-03-21T15:21:30.156Z,36.75
2023-03-21T15:24:03.472Z,38.38
2023-03-21T15:26:32.924Z,38.82
2023-03-21T15:29:02.652Z,39.95
2023-03-21T15:31:37.259Z,39.60
2023-03-21T15:34:06.530Z,40.42
2023-03-21T15:36:38.163Z,39.88
2023-03-21T15:39:09.025Z,40.89
2023-03-21T15:41:37.700Z,40.50
2023-03-21T15:44:14.515Z,40.42
2023-03-21T15:46:46.438Z,39.49
2023-03-21T15:49:19.081Z,40.05
2023-03-21T15:51:50.478Z,39.65
2023-03-21T15:54:26.166Z,39.99
2023-03-21T15:57:03.587Z,39.78
2023-03-21T15:59:35.816Z,39.44
2023-03-21T16:02:04.884Z,39.68
2023-03-21T16:04:57.096Z,40.46
2023-03-21T16:07:25.555Z,40.12
2023-03-21T16:10:02.130Z,40.57
2023-03-21T16:12:30.707Z,40.94
2023-03-21T16:14:59.309Z,40.72
2023-03-21T16:17:39.839Z,41.32
2023-03-21T16:20:23.458Z,41.30
2023-03-21T16:22:53.096Z,41.78
2023-03-21T16:25:22.077Z,42.12
2023-03-21T16:27:50.612Z,42.53
2023-03-21T16:30:22.168Z,42.67
2023-03-21T16:32:51.386Z,42.55
2023-03-21T16:35:22.282Z,42.87
2023-03-21T16:37:52.395Z,42.54
2023-03-21T16:40:31.324Z,42.00
2023-03-21T16:42:59.914Z,42.62
2023-03-21T16:45:30.716Z,43.03
2023-03-21T16:47:59.606Z,43.48
2023-03-21T16:50:58.107Z,43.81
2023-03-21T16:53:26.185Z,43.07
2023-03-21T16:55:54.939Z,43.38
2023-03-21T16:58:23.106Z,44.49
2023-03-21T17:00:51.179Z,44.13
2023-03-21T17:03:22.218Z,45.07
2023-03-21T17:05:50.737Z,44.83
2023-03-21T17:08:21.225Z,45.74
2023-03-21T17:10:49.817Z,45.60
2023-03-21T17:13:19.115Z,44.98
2023-03-21T17:15:47.537Z,45.78
2023-03-21T17:18:16.248Z,45.65
2023-03-21T17:20:44.409Z,45.88
2023-03-21T17:23:12.676Z,45.73
2023-03-21T17:25:44.247Z,46.26
2023-03-21T17:28:12.437Z,46.10
2023-03-21T17:30:41.721Z,46.20
2023-03-21T17:33:10.087Z,46.78
2023-03-21T17:35:38.750Z,46.95
2023-03-21T17:38:13.144Z,47.13
2023-03-21T17:40:41.688Z,47.09
2023-03-21T17:43:16.234Z,46.75
2023-03-21T17:45:45.214Z,46.93
2023-03-21T17:48:13.794Z,47.01
2023-03-21T17:50:42.144Z,47.80
2023-03-21T17:53:10.463Z,48.00
2023-03-21T17:55:40.955Z,48.12
2023-03-21T17:58:12.028Z,47.51
2023-03-21T18:00:41.451Z,48.22
2023-03-21T18:03:09.979Z,48.09
2023-03-21T18:05:38.095Z,48.21
2023-03-21T18:08:10.740Z,49.08
2023-03-21T18:10:41.583Z,48.34
2023-03-21T18:13:10.540Z,49.15
2023-03-21T18:15:44.937Z,49.29
2023-03-21T18:18:16.215Z,49.25
2023-03-21T18:20:52.241Z,49.73
2023-03-21T18:23:22.237Z,50.83
2023-03-21T18:25:52.844Z,52.51
2023-03-21T18:28:22.284Z,52.64
2023-03-21T18:33:41.088Z,51.42
2023-03-21T18:36:10.413Z,50.72
2023-03-21T18:38:39.408Z,53.54
2023-03-21T18:41:08.982Z,55.34
2023-03-21T18:46:30.709Z,55.03
2023-03-21T18:48:58.863Z,55.77
2023-03-21T18:51:26.983Z,54.16
2023-03-21T18:53:55.592Z,56.44
2023-03-21T18:57:06.356Z,56.97
2023-03-21T18:59:13.846Z,59.04
2023-03-21T19:01:43.562Z,61.01
2023-03-21T19:04:23.076Z,61.51
2023-03-21T19:06:55.264Z,62.55
2023-03-21T19:09:29.642Z,62.21
2023-03-21T19:12:00.889Z,63.11
2023-03-21T19:14:30.265Z,63.52
2023-03-21T19:17:47.569Z,64.94
2023-03-21T19:19:48.557Z,65.50
2023-03-21T19:22:17.005Z,64.59
2023-03-21T19:24:45.159Z,64.31
2023-03-21T19:27:13.746Z,63.18
2023-03-21T19:29:42.329Z,65.81
2023-03-21T19:32:12.434Z,67.28
2023-03-21T19:34:41.065Z,68.10
2023-03-21T19:37:09.216Z,68.06
2023-03-21T19:39:38.297Z,66.51
2023-03-21T19:42:16.952Z,68.82
2023-03-21T19:44:46.405Z,67.85
2023-03-21T19:47:14.945Z,67.96
2023-03-21T19:50:33.079Z,65.65
2023-03-21T19:52:32.311Z,64.96
2023-03-21T19:55:00.647Z,66.35
2023-03-21T19:57:28.847Z,66.34
2023-03-21T19:59:57.467Z,65.78
2023-03-21T20:02:39.881Z,67.01
2023-03-21T20:05:10.333Z,66.19
2023-03-21T20:07:38.931Z,65.40
2023-03-21T20:10:09.389Z,66.11
2023-03-21T20:12:38.216Z,70.40
2023-03-21T20:15:17.191Z,70.27
2023-03-21T20:17:47.315Z,69.45
2023-03-21T20:20:18.317Z,70.66
2023-03-21T20:23:07.952Z,70.93
2023-03-21T20:25:40.726Z,71.47
2023-03-21T20:28:16.242Z,72.95
2023-03-21T20:30:53.614Z,71.21
2023-03-21T20:33:22.364Z,71.19
2023-03-21T20:38:46.147Z,72.15
2023-03-21T20:41:14.683Z,71.99
2023-03-21T20:46:31.723Z,72.22
2023-03-21T20:49:00.016Z,69.59
2023-03-21T20:54:18.141Z,74.89
2023-03-21T20:56:46.328Z,76.28
2023-03-21T20:59:24.581Z,76.34
2023-03-21T21:01:58.275Z,76.46
2023-03-21T21:04:55.788Z,73.29
2023-03-21T21:07:22.179Z,77.20
2023-03-21T21:09:50.534Z,74.71
2023-03-21T21:12:23.445Z,75.65
2023-03-21T21:14:52.402Z,76.02
2023-03-21T21:17:37.165Z,77.61
2023-03-21T21:20:18.897Z,77.57
2023-03-21T21:22:59.020Z,77.28
2023-03-21T21:25:32.170Z,75.43
2023-03-21T21:28:02.194Z,75.15
2023-03-21T21:30:32.007Z,76.59
2023-03-21T21:33:01.161Z,75.87
2023-03-21T21:35:30.736Z,76.10
2023-03-21T21:37:58.879Z,75.58
2023-03-21T21:40:27.215Z,73.57
2023-03-21T21:42:55.871Z,74.54
2023-03-21T21:45:24.136Z,74.98
2023-03-21T21:47:52.449Z,75.28
2023-03-21T21:50:22.483Z,74.76
2023-03-21T21:52:53.057Z,73.44
2023-03-21T21:55:22.139Z,73.70
2023-03-21T21:57:51.056Z,74.31
2023-03-21T22:00:20.415Z,71.92
2023-03-21T22:02:49.218Z,72.62
2023-03-21T22:05:19.325Z,71.91
2023-03-21T22:07:52.796Z,72.94
2023-03-21T22:10:23.725Z,73.59
2023-03-21T22:12:52.385Z,74.81
2023-03-21T22:15:22.808Z,75.06
2023-03-21T22:17:51.947Z,73.20
2023-03-21T22:20:21.496Z,72.94
2023-03-21T22:22:49.762Z,72.34
2023-03-21T22:25:18.492Z,73.07
2023-03-21T22:27:47.529Z,73.83
2023-03-21T22:30:17.648Z,75.65
2023-03-21T22:32:56.409Z,74.19
2023-03-21T22:35:27.702Z,72.38
2023-03-21T22:37:56.643Z,72.84
2023-03-21T22:40:24.918Z,73.14
2023-03-21T22:42:53.110Z,74.56
2023-03-21T22:45:21.797Z,74.91
2023-03-21T22:47:50.039Z,73.43
2023-03-21T22:50:18.362Z,74.29
2023-03-21T22:52:46.900Z,75.32
2023-03-21T22:55:14.944Z,73.36
2023-03-21T22:57:43.122Z,73.79
2023-03-21T23:00:13.448Z,73.02
2023-03-21T23:02:42.406Z,71.99
2023-03-21T23:05:11.200Z,72.21
2023-03-21T23:07:40.019Z,71.39
2023-03-21T23:10:09.178Z,70.15
2023-03-21T23:12:37.851Z,71.65
2023-03-21T23:15:08.412Z,71.05
2023-03-21T23:17:36.858Z,71.37
2023-03-21T23:20:09.021Z,70.59
2023-03-21T23:22:38.576Z,70.92
2023-03-21T23:25:08.438Z,69.66
2023-03-21T23:27:36.682Z,68.52
2023-03-21T23:30:06.769Z,67.66
2023-03-21T23:32:35.026Z,67.20
2023-03-21T23:35:03.308Z,66.72
2023-03-21T23:37:31.923Z,68.32
2023-03-21T23:40:00.138Z,70.31
2023-03-21T23:42:29.760Z,71.42
2023-03-21T23:44:58.245Z,71.67
2023-03-21T23:47:26.352Z,69.77
2023-03-21T23:49:54.786Z,72.94
2023-03-21T23:52:23.349Z,70.70
2023-03-21T23:54:51.591Z,73.37
2023-03-21T23:57:19.754Z,76.74
2023-03-21T23:59:48.479Z,75.23
